sensor_id;sensor_type;location;lat;lon;timestamp;pressure;altitude;pressure_sealevel;temperature;humidity
37856;BME280;23694;43.274;26.924;2023-06-10T00:00:46;98333.22;;;19.40;71.24
37856;BME280;23694;43.274;26.924;2023-06-10T00:03:12;98331.03;;;19.43;70.96
37856;BME280;23694;43.274;26.924;2023-06-10T00:05:38;98331.91;;;19.36;71.13
37856;BME280;23694;43.274;26.924;2023-06-10T00:08:05;98334.38;;;19.37;71.16
37856;BME280;23694;43.274;26.924;2023-06-10T00:10:37;98333.81;;;19.19;72.07
37856;BME280;23694;43.274;26.924;2023-06-10T00:13:05;98333.66;;;19.20;72.16
37856;BME280;23694;43.274;26.924;2023-06-10T00:15:33;98326.34;;;19.22;72.23
37856;BME280;23694;43.274;26.924;2023-06-10T00:18:01;98331.31;;;19.25;72.15
37856;BME280;23694;43.274;26.924;2023-06-10T00:20:28;98318.50;;;19.29;71.85
37856;BME280;23694;43.274;26.924;2023-06-10T00:22:54;98318.50;;;19.29;72.00
37856;BME280;23694;43.274;26.924;2023-06-10T00:25:20;98320.34;;;19.28;72.13
37856;BME280;23694;43.274;26.924;2023-06-10T00:27:46;98326.47;;;19.29;71.97
37856;BME280;23694;43.274;26.924;2023-06-10T00:30:12;98324.34;;;19.24;72.11
37856;BME280;23694;43.274;26.924;2023-06-10T00:32:39;98320.38;;;19.20;72.17
37856;BME280;23694;43.274;26.924;2023-06-10T00:35:06;98324.06;;;19.11;72.78
37856;BME280;23694;43.274;26.924;2023-06-10T00:37:33;98320.13;;;19.07;73.44
37856;BME280;23694;43.274;26.924;2023-06-10T00:40:02;98321.44;;;19.11;72.97
37856;BME280;23694;43.274;26.924;2023-06-10T00:42:28;98321.59;;;19.10;72.83
37856;BME280;23694;43.274;26.924;2023-06-10T00:44:55;98323.59;;;19.08;72.92
37856;BME280;23694;43.274;26.924;2023-06-10T00:47:21;98322.94;;;19.06;73.13
37856;BME280;23694;43.274;26.924;2023-06-10T00:49:49;98323.47;;;19.01;73.10
37856;BME280;23694;43.274;26.924;2023-06-10T00:52:16;98326.13;;;19.01;73.15
37856;BME280;23694;43.274;26.924;2023-06-10T00:54:43;98331.75;;;19.06;72.79
37856;BME280;23694;43.274;26.924;2023-06-10T00:57:10;98332.44;;;19.00;72.85
37856;BME280;23694;43.274;26.924;2023-06-10T00:59:39;98328.13;;;18.99;72.83
37856;BME280;23694;43.274;26.924;2023-06-10T01:02:05;98335.09;;;19.00;72.71
37856;BME280;23694;43.274;26.924;2023-06-10T01:04:33;98332.78;;;18.97;72.75
37856;BME280;23694;43.274;26.924;2023-06-10T01:07:25;98331.78;;;18.98;72.77
37856;BME280;23694;43.274;26.924;2023-06-10T01:09:59;98335.44;;;18.97;72.83
37856;BME280;23694;43.274;26.924;2023-06-10T01:15:18;98325.69;;;18.89;73.21
37856;BME280;23694;43.274;26.924;2023-06-10T01:17:58;98329.50;;;18.87;73.01
37856;BME280;23694;43.274;26.924;2023-06-10T01:20:29;98327.34;;;18.82;73.23
37856;BME280;23694;43.274;26.924;2023-06-10T01:22:58;98328.69;;;18.78;73.39
37856;BME280;23694;43.274;26.924;2023-06-10T01:25:26;98322.44;;;18.63;74.26
37856;BME280;23694;43.274;26.924;2023-06-10T01:33:50;98320.16;;;18.44;75.29
37856;BME280;23694;43.274;26.924;2023-06-10T01:36:18;98324.81;;;18.33;75.81
37856;BME280;23694;43.274;26.924;2023-06-10T01:38:46;98321.69;;;18.22;76.36
37856;BME280;23694;43.274;26.924;2023-06-10T01:41:14;98316.69;;;18.27;76.21
37856;BME280;23694;43.274;26.924;2023-06-10T01:43:43;98317.69;;;18.34;75.63
37856;BME280;23694;43.274;26.924;2023-06-10T01:46:09;98320.66;;;18.31;75.67
37856;BME280;23694;43.274;26.924;2023-06-10T01:48:37;98317.53;;;18.27;75.90
37856;BME280;23694;43.274;26.924;2023-06-10T01:51:04;98320.00;;;18.29;75.92
37856;BME280;23694;43.274;26.924;2023-06-10T01:53:30;98316.38;;;18.30;75.76
37856;BME280;23694;43.274;26.924;2023-06-10T01:55:56;98311.41;;;18.27;75.77
37856;BME280;23694;43.274;26.924;2023-06-10T01:58:22;98318.53;;;18.26;75.97
37856;BME280;23694;43.274;26.924;2023-06-10T02:00:48;98317.53;;;18.11;76.08
37856;BME280;23694;43.274;26.924;2023-06-10T02:03:15;98329.94;;;18.11;76.68
37856;BME280;23694;43.274;26.924;2023-06-10T02:05:41;98320.34;;;18.10;76.57
37856;BME280;23694;43.274;26.924;2023-06-10T02:08:07;98318.53;;;18.02;77.32
37856;BME280;23694;43.274;26.924;2023-06-10T02:10:33;98313.56;;;17.99;77.68
37856;BME280;23694;43.274;26.924;2023-06-10T02:12:59;98318.03;;;17.90;78.05
37856;BME280;23694;43.274;26.924;2023-06-10T02:15:25;98301.50;;;17.72;79.11
37856;BME280;23694;43.274;26.924;2023-06-10T02:17:52;98312.41;;;17.69;79.67
37856;BME280;23694;43.274;26.924;2023-06-10T02:20:18;98309.03;;;17.51;80.79
37856;BME280;23694;43.274;26.924;2023-06-10T02:22:44;98322.94;;;17.53;81.42
37856;BME280;23694;43.274;26.924;2023-06-10T02:25:10;98309.25;;;17.65;80.32
37856;BME280;23694;43.274;26.924;2023-06-10T02:27:36;98313.41;;;17.84;79.40
37856;BME280;23694;43.274;26.924;2023-06-10T02:30:03;98308.59;;;17.96;78.46
37856;BME280;23694;43.274;26.924;2023-06-10T02:32:29;98304.44;;;18.01;77.66
37856;BME280;23694;43.274;26.924;2023-06-10T02:34:55;98297.97;;;18.12;77.10
37856;BME280;23694;43.274;26.924;2023-06-10T02:37:21;98305.94;;;18.12;76.83
37856;BME280;23694;43.274;26.924;2023-06-10T02:39:47;98309.91;;;18.16;76.71
37856;BME280;23694;43.274;26.924;2023-06-10T02:42:13;98308.91;;;18.09;76.72
37856;BME280;23694;43.274;26.924;2023-06-10T02:44:39;98317.38;;;18.04;77.20
37856;BME280;23694;43.274;26.924;2023-06-10T02:47:05;98317.03;;;18.16;76.92
37856;BME280;23694;43.274;26.924;2023-06-10T02:49:31;98320.84;;;18.29;76.31
37856;BME280;23694;43.274;26.924;2023-06-10T02:51:57;98321.63;;;18.46;75.03
37856;BME280;23694;43.274;26.924;2023-06-10T02:54:24;98312.69;;;18.47;74.90
37856;BME280;23694;43.274;26.924;2023-06-10T02:56:51;98317.44;;;18.60;74.41
37856;BME280;23694;43.274;26.924;2023-06-10T02:59:18;98316.41;;;18.77;74.02
37856;BME280;23694;43.274;26.924;2023-06-10T03:01:45;98324.16;;;18.95;72.98
37856;BME280;23694;43.274;26.924;2023-06-10T03:04:11;98312.41;;;19.20;71.58
37856;BME280;23694;43.274;26.924;2023-06-10T03:06:39;98308.66;;;19.38;70.63
37856;BME280;23694;43.274;26.924;2023-06-10T03:09:06;98309.78;;;19.43;70.11
37856;BME280;23694;43.274;26.924;2023-06-10T03:11:36;98312.56;;;19.58;69.85
37856;BME280;23694;43.274;26.924;2023-06-10T03:14:02;98311.59;;;19.97;68.10
37856;BME280;23694;43.274;26.924;2023-06-10T03:16:28;98308.91;;;20.34;66.87
37856;BME280;23694;43.274;26.924;2023-06-10T03:18:56;98311.88;;;20.69;64.89
37856;BME280;23694;43.274;26.924;2023-06-10T03:21:22;98307.19;;;21.00;63.10
37856;BME280;23694;43.274;26.924;2023-06-10T03:23:48;98313.56;;;21.20;62.24
37856;BME280;23694;43.274;26.924;2023-06-10T03:26:14;98324.19;;;21.50;61.34
37856;BME280;23694;43.274;26.924;2023-06-10T03:28:41;98325.13;;;21.42;60.32
37856;BME280;23694;43.274;26.924;2023-06-10T03:31:07;98337.13;;;20.87;62.35
37856;BME280;23694;43.274;26.924;2023-06-10T03:33:33;98324.50;;;20.00;66.38
37856;BME280;23694;43.274;26.924;2023-06-10T03:36:00;98327.22;;;19.15;70.56
37856;BME280;23694;43.274;26.924;2023-06-10T03:38:26;98315.84;;;19.29;70.16
37856;BME280;23694;43.274;26.924;2023-06-10T03:40:52;98320.19;;;19.61;69.40
37856;BME280;23694;43.274;26.924;2023-06-10T03:43:18;98323.66;;;19.84;68.62
37856;BME280;23694;43.274;26.924;2023-06-10T03:45:44;98322.59;;;20.08;66.83
37856;BME280;23694;43.274;26.924;2023-06-10T03:48:11;98323.25;;;20.48;65.50
37856;BME280;23694;43.274;26.924;2023-06-10T03:50:37;98331.41;;;21.20;63.54
37856;BME280;23694;43.274;26.924;2023-06-10T03:53:03;98329.56;;;21.99;59.38
37856;BME280;23694;43.274;26.924;2023-06-10T03:55:29;98336.84;;;22.61;57.13
37856;BME280;23694;43.274;26.924;2023-06-10T03:57:56;98327.75;;;23.25;54.95
37856;BME280;23694;43.274;26.924;2023-06-10T04:00:23;98336.38;;;23.94;52.35
37856;BME280;23694;43.274;26.924;2023-06-10T04:02:50;98335.19;;;24.37;49.81
37856;BME280;23694;43.274;26.924;2023-06-10T04:05:18;98336.19;;;24.62;49.12
37856;BME280;23694;43.274;26.924;2023-06-10T04:07:44;98337.97;;;25.01;47.58
37856;BME280;23694;43.274;26.924;2023-06-10T04:10:11;98346.28;;;25.44;46.67
37856;BME280;23694;43.274;26.924;2023-06-10T04:12:37;98339.31;;;26.06;44.97
37856;BME280;23694;43.274;26.924;2023-06-10T04:15:05;98333.03;;;26.44;43.22
37856;BME280;23694;43.274;26.924;2023-06-10T04:17:31;98328.91;;;26.66;42.54
37856;BME280;23694;43.274;26.924;2023-06-10T04:19:57;98334.88;;;26.68;41.73
37856;BME280;23694;43.274;26.924;2023-06-10T04:22:26;98338.09;;;26.27;43.04
37856;BME280;23694;43.274;26.924;2023-06-10T04:24:52;98342.81;;;25.37;44.18
37856;BME280;23694;43.274;26.924;2023-06-10T04:27:18;98344.44;;;24.74;46.73
37856;BME280;23694;43.274;26.924;2023-06-10T04:29:45;98340.50;;;24.03;48.83
37856;BME280;23694;43.274;26.924;2023-06-10T04:32:11;98337.03;;;24.43;47.83
37856;BME280;23694;43.274;26.924;2023-06-10T04:34:37;98335.78;;;24.72;47.27
37856;BME280;23694;43.274;26.924;2023-06-10T04:37:06;98332.81;;;24.93;47.19
37856;BME280;23694;43.274;26.924;2023-06-10T04:39:32;98335.38;;;25.77;45.17
37856;BME280;23694;43.274;26.924;2023-06-10T04:41:59;98335.59;;;25.76;44.46
37856;BME280;23694;43.274;26.924;2023-06-10T04:44:25;98335.91;;;25.54;44.99
37856;BME280;23694;43.274;26.924;2023-06-10T04:46:51;98341.78;;;25.25;45.98
37856;BME280;23694;43.274;26.924;2023-06-10T04:49:17;98338.66;;;24.77;47.34
37856;BME280;23694;43.274;26.924;2023-06-10T04:51:44;98337.66;;;24.51;48.96
37856;BME280;23694;43.274;26.924;2023-06-10T04:54:10;98340.44;;;25.92;45.49
37856;BME280;23694;43.274;26.924;2023-06-10T04:56:37;98328.75;;;27.16;41.17
37856;BME280;23694;43.274;26.924;2023-06-10T04:59:05;98334.53;;;27.01;41.43
37856;BME280;23694;43.274;26.924;2023-06-10T05:01:31;98343.38;;;26.15;43.26
37856;BME280;23694;43.274;26.924;2023-06-10T05:03:57;98334.97;;;26.98;42.04
37856;BME280;23694;43.274;26.924;2023-06-10T05:06:23;98329.78;;;28.23;39.04
37856;BME280;23694;43.274;26.924;2023-06-10T05:08:49;98338.69;;;28.94;37.59
37856;BME280;23694;43.274;26.924;2023-06-10T05:11:15;98344.88;;;28.48;37.90
37856;BME280;23694;43.274;26.924;2023-06-10T05:13:42;98347.06;;;27.74;39.44
37856;BME280;23694;43.274;26.924;2023-06-10T05:16:08;98345.00;;;26.66;42.59
37856;BME280;23694;43.274;26.924;2023-06-10T05:18:34;98351.41;;;25.84;44.71
37856;BME280;23694;43.274;26.924;2023-06-10T05:21:01;98341.69;;;25.00;47.65
37856;BME280;23694;43.274;26.924;2023-06-10T05:23:28;98344.63;;;24.79;49.52
37856;BME280;23694;43.274;26.924;2023-06-10T05:25:54;98347.28;;;23.99;51.87
37856;BME280;23694;43.274;26.924;2023-06-10T05:28:20;98344.41;;;24.01;52.44
37856;BME280;23694;43.274;26.924;2023-06-10T05:30:46;98343.78;;;23.92;52.95
37856;BME280;23694;43.274;26.924;2023-06-10T05:33:13;98338.03;;;23.95;53.41
37856;BME280;23694;43.274;26.924;2023-06-10T05:35:39;98335.78;;;23.99;54.11
37856;BME280;23694;43.274;26.924;2023-06-10T05:38:05;98326.06;;;23.71;54.70
37856;BME280;23694;43.274;26.924;2023-06-10T05:40:31;98335.97;;;23.97;54.92
37856;BME280;23694;43.274;26.924;2023-06-10T05:42:57;98335.31;;;23.56;56.36
37856;BME280;23694;43.274;26.924;2023-06-10T05:45:23;98336.38;;;23.81;55.49
37856;BME280;23694;43.274;26.924;2023-06-10T05:47:49;98336.78;;;23.85;55.48
37856;BME280;23694;43.274;26.924;2023-06-10T05:50:15;98332.47;;;24.03;54.94
37856;BME280;23694;43.274;26.924;2023-06-10T05:52:41;98330.03;;;24.22;55.19
37856;BME280;23694;43.274;26.924;2023-06-10T05:55:08;98334.53;;;24.01;55.54
37856;BME280;23694;43.274;26.924;2023-06-10T05:57:34;98331.44;;;23.98;55.18
37856;BME280;23694;43.274;26.924;2023-06-10T06:00:00;98344.81;;;23.91;55.73
37856;BME280;23694;43.274;26.924;2023-06-10T06:02:26;98339.63;;;23.63;56.07
37856;BME280;23694;43.274;26.924;2023-06-10T06:04:52;98346.16;;;23.54;56.71
37856;BME280;23694;43.274;26.924;2023-06-10T06:07:18;98349.88;;;23.53;56.91
37856;BME280;23694;43.274;26.924;2023-06-10T06:09:47;98349.69;;;23.55;56.87
37856;BME280;23694;43.274;26.924;2023-06-10T06:12:13;98358.59;;;24.01;55.57
37856;BME280;23694;43.274;26.924;2023-06-10T06:14:39;98349.63;;;24.29;54.79
37856;BME280;23694;43.274;26.924;2023-06-10T06:17:06;98347.94;;;24.61;53.66
37856;BME280;23694;43.274;26.924;2023-06-10T06:19:32;98345.06;;;24.16;54.53
37856;BME280;23694;43.274;26.924;2023-06-10T06:21:59;98333.72;;;24.01;55.28
37856;BME280;23694;43.274;26.924;2023-06-10T06:24:25;98341.78;;;24.41;54.14
37856;BME280;23694;43.274;26.924;2023-06-10T06:26:51;98337.97;;;24.94;53.06
37856;BME280;23694;43.274;26.924;2023-06-10T06:29:17;98337.00;;;25.40;50.93
37856;BME280;23694;43.274;26.924;2023-06-10T06:31:44;98333.13;;;25.74;49.34
37856;BME280;23694;43.274;26.924;2023-06-10T06:34:10;98337.00;;;26.10;47.73
37856;BME280;23694;43.274;26.924;2023-06-10T06:36:36;98338.28;;;26.01;47.70
37856;BME280;23694;43.274;26.924;2023-06-10T06:39:02;98337.66;;;25.74;48.19
37856;BME280;23694;43.274;26.924;2023-06-10T06:41:28;98332.78;;;25.57;45.96
37856;BME280;23694;43.274;26.924;2023-06-10T06:43:54;98334.19;;;25.98;41.73
37856;BME280;23694;43.274;26.924;2023-06-10T06:46:20;98321.56;;;26.30;41.93
37856;BME280;23694;43.274;26.924;2023-06-10T06:48:48;98321.16;;;26.33;41.39
37856;BME280;23694;43.274;26.924;2023-06-10T06:51:14;98324.84;;;26.57;41.00
37856;BME280;23694;43.274;26.924;2023-06-10T06:53:40;98322.38;;;26.99;40.09
37856;BME280;23694;43.274;26.924;2023-06-10T06:56:12;98319.44;;;27.00;38.86
37856;BME280;23694;43.274;26.924;2023-06-10T06:58:38;98319.97;;;27.09;40.11
37856;BME280;23694;43.274;26.924;2023-06-10T07:01:04;98316.72;;;27.37;39.95
37856;BME280;23694;43.274;26.924;2023-06-10T07:03:30;98315.25;;;27.53;39.10
37856;BME280;23694;43.274;26.924;2023-06-10T07:05:56;98314.41;;;27.70;38.40
37856;BME280;23694;43.274;26.924;2023-06-10T07:08:22;98319.13;;;27.87;37.98
37856;BME280;23694;43.274;26.924;2023-06-10T07:10:48;98319.44;;;27.67;36.21
37856;BME280;23694;43.274;26.924;2023-06-10T07:13:15;98318.97;;;27.22;36.57
37856;BME280;23694;43.274;26.924;2023-06-10T07:15:41;98315.09;;;27.36;36.61
37856;BME280;23694;43.274;26.924;2023-06-10T07:18:07;98311.41;;;27.30;36.07
37856;BME280;23694;43.274;26.924;2023-06-10T07:20:33;98309.63;;;27.24;35.08
37856;BME280;23694;43.274;26.924;2023-06-10T07:22:59;98304.25;;;27.24;35.62
37856;BME280;23694;43.274;26.924;2023-06-10T07:25:25;98312.63;;;27.64;36.12
37856;BME280;23694;43.274;26.924;2023-06-10T07:27:51;98315.38;;;27.76;35.44
37856;BME280;23694;43.274;26.924;2023-06-10T07:30:17;98314.94;;;27.91;35.19
37856;BME280;23694;43.274;26.924;2023-06-10T07:32:43;98317.66;;;28.02;34.14
37856;BME280;23694;43.274;26.924;2023-06-10T07:35:10;98321.41;;;28.01;33.54
37856;BME280;23694;43.274;26.924;2023-06-10T07:37:37;98322.72;;;28.10;33.44
37856;BME280;23694;43.274;26.924;2023-06-10T07:40:04;98320.50;;;28.19;33.67
37856;BME280;23694;43.274;26.924;2023-06-10T07:42:32;98318.16;;;28.23;34.19
37856;BME280;23694;43.274;26.924;2023-06-10T07:44:58;98321.59;;;28.30;33.61
37856;BME280;23694;43.274;26.924;2023-06-10T07:47:25;98318.44;;;27.91;34.11
37856;BME280;23694;43.274;26.924;2023-06-10T07:49:51;98310.47;;;27.85;34.21
37856;BME280;23694;43.274;26.924;2023-06-10T07:52:17;98321.28;;;27.96;35.20
37856;BME280;23694;43.274;26.924;2023-06-10T07:54:43;98314.38;;;28.00;34.84
37856;BME280;23694;43.274;26.924;2023-06-10T07:57:09;98314.66;;;27.69;35.45
37856;BME280;23694;43.274;26.924;2023-06-10T07:59:35;98319.81;;;27.82;35.59
37856;BME280;23694;43.274;26.924;2023-06-10T08:02:01;98317.69;;;27.42;36.14
37856;BME280;23694;43.274;26.924;2023-06-10T08:04:27;98316.50;;;27.68;35.54
37856;BME280;23694;43.274;26.924;2023-06-10T08:06:53;98315.09;;;27.66;34.90
37856;BME280;23694;43.274;26.924;2023-06-10T08:09:19;98318.66;;;27.78;34.80
37856;BME280;23694;43.274;26.924;2023-06-10T08:11:47;98313.22;;;28.20;34.68
37856;BME280;23694;43.274;26.924;2023-06-10T08:14:13;98304.69;;;28.23;34.40
37856;BME280;23694;43.274;26.924;2023-06-10T08:16:39;98306.47;;;28.64;34.33
37856;BME280;23694;43.274;26.924;2023-06-10T08:19:05;98309.38;;;28.97;33.30
37856;BME280;23694;43.274;26.924;2023-06-10T08:21:31;98304.69;;;28.93;32.54
37856;BME280;23694;43.274;26.924;2023-06-10T08:23:57;98309.19;;;28.64;31.58
37856;BME280;23694;43.274;26.924;2023-06-10T08:26:23;98308.56;;;28.73;32.41
37856;BME280;23694;43.274;26.924;2023-06-10T08:28:50;98303.56;;;29.17;31.72
37856;BME280;23694;43.274;26.924;2023-06-10T08:31:16;98299.44;;;28.86;30.40
37856;BME280;23694;43.274;26.924;2023-06-10T08:33:42;98292.38;;;28.97;31.00
37856;BME280;23694;43.274;26.924;2023-06-10T08:36:08;98295.06;;;28.97;31.59
37856;BME280;23694;43.274;26.924;2023-06-10T08:38:34;98297.53;;;28.98;29.27
37856;BME280;23694;43.274;26.924;2023-06-10T08:41:01;98299.72;;;29.13;29.85
37856;BME280;23694;43.274;26.924;2023-06-10T08:45:57;98288.69;;;29.55;28.49
37856;BME280;23694;43.274;26.924;2023-06-10T08:48:30;98294.19;;;29.77;27.11
37856;BME280;23694;43.274;26.924;2023-06-10T08:50:57;98295.38;;;29.97;27.13
37856;BME280;23694;43.274;26.924;2023-06-10T08:53:26;98299.16;;;29.40;26.48
37856;BME280;23694;43.274;26.924;2023-06-10T08:55:53;98296.34;;;29.46;26.61
37856;BME280;23694;43.274;26.924;2023-06-10T08:58:20;98294.97;;;29.32;27.01
37856;BME280;23694;43.274;26.924;2023-06-10T09:00:46;98283.84;;;28.88;26.02
37856;BME280;23694;43.274;26.924;2023-06-10T09:03:12;98281.25;;;28.82;26.33
37856;BME280;23694;43.274;26.924;2023-06-10T09:05:39;98280.16;;;29.06;26.86
37856;BME280;23694;43.274;26.924;2023-06-10T09:08:08;98275.06;;;29.21;27.06
37856;BME280;23694;43.274;26.924;2023-06-10T09:10:35;98278.06;;;29.37;27.13
37856;BME280;23694;43.274;26.924;2023-06-10T09:13:01;98280.00;;;29.53;25.55
37856;BME280;23694;43.274;26.924;2023-06-10T09:15:27;98276.69;;;29.79;25.69
37856;BME280;23694;43.274;26.924;2023-06-10T09:17:53;98273.56;;;29.87;26.99
37856;BME280;23694;43.274;26.924;2023-06-10T09:20:19;98258.13;;;29.66;27.15
37856;BME280;23694;43.274;26.924;2023-06-10T09:22:45;98268.59;;;29.22;25.02
37856;BME280;23694;43.274;26.924;2023-06-10T09:25:12;98267.56;;;28.71;25.26
37856;BME280;23694;43.274;26.924;2023-06-10T09:27:50;98277.44;;;28.31;25.54
37856;BME280;23694;43.274;26.924;2023-06-10T09:30:27;98278.38;;;28.25;26.32
37856;BME280;23694;43.274;26.924;2023-06-10T09:32:57;98276.44;;;27.90;26.95
37856;BME280;23694;43.274;26.924;2023-06-10T09:35:25;98280.63;;;27.86;26.88
37856;BME280;23694;43.274;26.924;2023-06-10T09:37:57;98276.44;;;27.30;27.95
37856;BME280;23694;43.274;26.924;2023-06-10T09:40:23;98274.53;;;27.79;27.93
37856;BME280;23694;43.274;26.924;2023-06-10T09:42:54;98275.88;;;27.58;28.40
37856;BME280;23694;43.274;26.924;2023-06-10T09:45:21;98275.25;;;27.86;28.27
37856;BME280;23694;43.274;26.924;2023-06-10T09:47:52;98270.19;;;27.66;29.29
37856;BME280;23694;43.274;26.924;2023-06-10T09:50:18;98265.81;;;28.07;28.30
37856;BME280;23694;43.274;26.924;2023-06-10T09:52:45;98273.09;;;28.30;28.57
37856;BME280;23694;43.274;26.924;2023-06-10T09:55:12;98263.47;;;28.10;28.48
37856;BME280;23694;43.274;26.924;2023-06-10T09:57:38;98265.47;;;28.50;28.50
37856;BME280;23694;43.274;26.924;2023-06-10T10:00:09;98273.56;;;28.38;28.03
37856;BME280;23694;43.274;26.924;2023-06-10T10:02:52;98261.47;;;28.76;28.20
37856;BME280;23694;43.274;26.924;2023-06-10T10:05:21;98266.19;;;29.09;27.91
37856;BME280;23694;43.274;26.924;2023-06-10T10:07:47;98259.88;;;29.03;27.31
37856;BME280;23694;43.274;26.924;2023-06-10T10:10:16;98257.13;;;28.75;28.49
37856;BME280;23694;43.274;26.924;2023-06-10T10:12:48;98256.22;;;28.69;27.88
37856;BME280;23694;43.274;26.924;2023-06-10T10:15:17;98257.88;;;28.47;28.80
37856;BME280;23694;43.274;26.924;2023-06-10T10:17:53;98252.25;;;28.37;28.26
37856;BME280;23694;43.274;26.924;2023-06-10T10:20:26;98250.50;;;28.42;27.76
37856;BME280;23694;43.274;26.924;2023-06-10T10:22:56;98258.00;;;28.29;28.15
37856;BME280;23694;43.274;26.924;2023-06-10T10:25:25;98265.47;;;28.15;28.68
37856;BME280;23694;43.274;26.924;2023-06-10T10:28:12;98256.00;;;28.24;28.49
37856;BME280;23694;43.274;26.924;2023-06-10T10:30:51;98253.44;;;28.41;28.15
37856;BME280;23694;43.274;26.924;2023-06-10T10:33:19;98256.44;;;28.68;28.17
37856;BME280;23694;43.274;26.924;2023-06-10T10:35:48;98256.06;;;28.76;28.03
37856;BME280;23694;43.274;26.924;2023-06-10T10:38:15;98257.94;;;28.87;28.06
37856;BME280;23694;43.274;26.924;2023-06-10T10:40:43;98260.16;;;28.90;27.09
37856;BME280;23694;43.274;26.924;2023-06-10T10:43:10;98258.63;;;28.83;27.70
37856;BME280;23694;43.274;26.924;2023-06-10T10:45:37;98263.00;;;28.72;27.51
37856;BME280;23694;43.274;26.924;2023-06-10T10:48:09;98262.53;;;28.87;28.01
37856;BME280;23694;43.274;26.924;2023-06-10T10:50:38;98252.81;;;28.86;27.89
37856;BME280;23694;43.274;26.924;2023-06-10T10:53:05;98260.50;;;28.82;27.99
37856;BME280;23694;43.274;26.924;2023-06-10T10:55:32;98253.91;;;29.01;28.60
37856;BME280;23694;43.274;26.924;2023-06-10T10:58:08;98260.84;;;29.26;28.77
37856;BME280;23694;43.274;26.924;2023-06-10T11:00:37;98251.66;;;29.39;29.15
37856;BME280;23694;43.274;26.924;2023-06-10T11:08:02;98252.38;;;29.62;28.29
37856;BME280;23694;43.274;26.924;2023-06-10T11:10:33;98253.19;;;29.63;28.72
37856;BME280;23694;43.274;26.924;2023-06-10T11:12:59;98251.09;;;29.82;28.95
37856;BME280;23694;43.274;26.924;2023-06-10T11:15:28;98244.78;;;29.76;29.21
37856;BME280;23694;43.274;26.924;2023-06-10T11:18:11;98244.38;;;29.84;29.16
37856;BME280;23694;43.274;26.924;2023-06-10T11:31:25;98237.03;;;29.96;29.46
37856;BME280;23694;43.274;26.924;2023-06-10T11:33:59;98236.91;;;30.03;28.99
37856;BME280;23694;43.274;26.924;2023-06-10T11:36:26;98233.56;;;29.84;28.85
37856;BME280;23694;43.274;26.924;2023-06-10T11:39:00;98226.38;;;29.90;29.16
37856;BME280;23694;43.274;26.924;2023-06-10T11:41:28;98227.63;;;29.99;29.16
37856;BME280;23694;43.274;26.924;2023-06-10T11:43:55;98227.22;;;29.28;29.28
37856;BME280;23694;43.274;26.924;2023-06-10T11:46:24;98222.03;;;29.55;30.13
37856;BME280;23694;43.274;26.924;2023-06-10T11:48:57;98226.88;;;29.87;29.26
37856;BME280;23694;43.274;26.924;2023-06-10T11:51:29;98223.16;;;29.43;29.38
37856;BME280;23694;43.274;26.924;2023-06-10T11:53:55;98216.50;;;29.05;30.48
37856;BME280;23694;43.274;26.924;2023-06-10T11:56:22;98211.72;;;29.24;30.60
37856;BME280;23694;43.274;26.924;2023-06-10T11:58:54;98223.19;;;29.02;30.92
37856;BME280;23694;43.274;26.924;2023-06-10T12:01:22;98204.91;;;29.04;30.61
37856;BME280;23694;43.274;26.924;2023-06-10T12:04:17;98212.81;;;28.83;31.27
37856;BME280;23694;43.274;26.924;2023-06-10T12:09:20;98199.59;;;29.10;30.70
37856;BME280;23694;43.274;26.924;2023-06-10T12:12:00;98204.13;;;29.49;29.93
37856;BME280;23694;43.274;26.924;2023-06-10T12:14:55;98201.69;;;29.48;30.06
37856;BME280;23694;43.274;26.924;2023-06-10T12:19:57;98207.50;;;29.56;29.60
37856;BME280;23694;43.274;26.924;2023-06-10T12:22:23;98194.31;;;29.15;29.39
37856;BME280;23694;43.274;26.924;2023-06-10T12:25:02;98195.47;;;29.19;28.49
37856;BME280;23694;43.274;26.924;2023-06-10T12:27:30;98187.56;;;29.29;28.73
37856;BME280;23694;43.274;26.924;2023-06-10T12:29:58;98181.41;;;29.45;28.68
37856;BME280;23694;43.274;26.924;2023-06-10T12:32:43;98172.25;;;29.46;27.86
37856;BME280;23694;43.274;26.924;2023-06-10T12:35:11;98171.25;;;29.07;28.00
37856;BME280;23694;43.274;26.924;2023-06-10T12:37:41;98170.41;;;28.90;28.81
37856;BME280;23694;43.274;26.924;2023-06-10T12:40:09;98174.91;;;29.01;28.40
37856;BME280;23694;43.274;26.924;2023-06-10T12:42:36;98169.19;;;28.97;29.32
37856;BME280;23694;43.274;26.924;2023-06-10T12:45:03;98168.41;;;29.14;28.82
37856;BME280;23694;43.274;26.924;2023-06-10T12:47:31;98169.03;;;29.04;29.04
37856;BME280;23694;43.274;26.924;2023-06-10T12:49:59;98164.91;;;28.85;28.39
37856;BME280;23694;43.274;26.924;2023-06-10T12:52:26;98167.72;;;28.90;28.49
37856;BME280;23694;43.274;26.924;2023-06-10T12:54:52;98161.25;;;28.39;28.72
37856;BME280;23694;43.274;26.924;2023-06-10T12:57:20;98156.75;;;28.68;28.78
37856;BME280;23694;43.274;26.924;2023-06-10T12:59:47;98158.09;;;28.82;28.89
37856;BME280;23694;43.274;26.924;2023-06-10T13:02:21;98160.41;;;28.62;28.93
37856;BME280;23694;43.274;26.924;2023-06-10T13:04:50;98157.47;;;28.52;29.18
37856;BME280;23694;43.274;26.924;2023-06-10T13:07:16;98151.63;;;28.55;28.75
37856;BME280;23694;43.274;26.924;2023-06-10T13:09:43;98162.00;;;27.88;28.99
37856;BME280;23694;43.274;26.924;2023-06-10T13:12:09;98162.56;;;27.66;29.37
37856;BME280;23694;43.274;26.924;2023-06-10T13:14:36;98157.50;;;27.46;29.54
37856;BME280;23694;43.274;26.924;2023-06-10T13:17:05;98162.88;;;27.46;29.00
37856;BME280;23694;43.274;26.924;2023-06-10T13:19:35;98157.59;;;27.40;29.43
37856;BME280;23694;43.274;26.924;2023-06-10T13:22:01;98156.84;;;27.63;29.94
37856;BME280;23694;43.274;26.924;2023-06-10T13:24:27;98153.44;;;27.67;30.16